createdAt,value
2022-08-31T00:03:36.392Z,986.1
2022-08-31T00:18:04.522Z,986.2
2022-08-31T00:32:31.834Z,986.3
2022-08-31T00:47:00.033Z,986.3
2022-08-31T01:01:28.297Z,986.3
2022-08-31T01:15:57.083Z,986.4
2022-08-31T01:30:27.130Z,986.8
2022-08-31T01:44:54.329Z,986.9
2022-08-31T01:59:28.457Z,987.1
2022-08-31T02:13:49.140Z,987.2
2022-08-31T02:28:22.553Z,987.2
2022-08-31T02:42:54.412Z,987
2022-08-31T02:57:16.521Z,986.9
2022-08-31T03:11:43.325Z,986.9
2022-08-31T03:26:06.708Z,986.9
2022-08-31T03:40:34.690Z,986.8
2022-08-31T03:55:02.507Z,986.8
2022-08-31T04:09:28.893Z,986.8
2022-08-31T04:24:01.413Z,986.8
2022-08-31T04:38:30.550Z,986.9
2022-08-31T04:53:04.349Z,986.9
2022-08-31T05:07:30.554Z,986.9
2022-08-31T05:22:00.456Z,986.9
2022-08-31T05:36:24.467Z,986.9
2022-08-31T05:50:52.267Z,986.9
2022-08-31T06:05:19.738Z,987
2022-08-31T06:19:48.475Z,987
2022-08-31T06:34:11.858Z,987.2
2022-08-31T06:48:46.318Z,987.2
2022-08-31T07:03:18.890Z,987.3
2022-08-31T07:17:43.644Z,987.3
2022-08-31T07:32:19.651Z,987.3
2022-08-31T07:46:50.090Z,987.3
2022-08-31T08:01:17.307Z,987.5
2022-08-31T08:15:53.510Z,987.5
2022-08-31T08:30:24.298Z,987.6
2022-08-31T08:44:49.281Z,987.6
2022-08-31T08:59:21.057Z,987.5
2022-08-31T09:13:48.441Z,987.6
2022-08-31T09:28:16.929Z,987.7
2022-08-31T09:42:48.604Z,987.7
2022-08-31T09:57:15.339Z,987.7
2022-08-31T10:11:43.857Z,987.7
2022-08-31T10:26:11.684Z,987.8
2022-08-31T10:40:45.042Z,987.7
2022-08-31T10:55:14.679Z,987.8
2022-08-31T11:09:38.519Z,987.7
2022-08-31T11:24:08.867Z,987.9
2022-08-31T11:38:34.818Z,987.9
2022-08-31T11:53:06.089Z,987.8
2022-08-31T12:07:33.003Z,987.8
2022-08-31T12:22:00.214Z,987.7
2022-08-31T12:36:22.570Z,987.6
2022-08-31T12:50:53.316Z,987.6
2022-08-31T13:05:16.412Z,987.4
2022-08-31T13:19:46.000Z,987.3
2022-08-31T13:34:15.586Z,987
2022-08-31T13:48:42.653Z,987
2022-08-31T14:03:11.031Z,986.9
2022-08-31T14:17:39.028Z,986.8
2022-08-31T14:32:03.227Z,986.8
2022-08-31T14:46:30.340Z,986.6
2022-08-31T15:01:02.044Z,986.4
2022-08-31T15:15:31.204Z,986.5
2022-08-31T15:29:57.552Z,986.5
2022-08-31T15:44:25.256Z,986.5
2022-08-31T15:58:52.221Z,986.4
2022-08-31T16:13:20.605Z,986.3
2022-08-31T16:27:47.348Z,986.3
2022-08-31T16:42:14.253Z,986.3
2022-08-31T16:56:50.584Z,986.3
2022-08-31T17:11:12.108Z,986.4
2022-08-31T17:25:39.685Z,986.4
2022-08-31T17:40:05.519Z,986.5
2022-08-31T17:54:32.145Z,986.6
2022-08-31T18:08:59.024Z,986.7
2022-08-31T18:23:32.322Z,987
2022-08-31T18:38:02.020Z,987.1
2022-08-31T18:52:26.062Z,987.3
2022-08-31T19:06:53.312Z,987.4
2022-08-31T19:21:27.388Z,987.5
2022-08-31T19:35:51.342Z,987.4
2022-08-31T19:50:19.572Z,987.5
2022-08-31T20:04:47.383Z,987.5
2022-08-31T20:19:14.607Z,987.6
2022-08-31T20:33:42.038Z,987.6
2022-08-31T20:48:22.101Z,987.6
2022-08-31T21:02:48.087Z,987.6
2022-08-31T21:17:10.279Z,987.5
2022-08-31T21:31:59.960Z,987.5
2022-08-31T21:46:17.623Z,987.5
2022-08-31T22:00:44.389Z,987.5
2022-08-31T22:15:11.437Z,987.5
2022-08-31T22:29:43.657Z,987.6
2022-08-31T22:44:12.305Z,987.6
2022-08-31T22:58:34.647Z,987.6
2022-08-31T23:13:02.525Z,987.5
2022-08-31T23:27:31.029Z,987.4
2022-08-31T23:41:59.589Z,987.4
2022-08-31T23:56:26.361Z,987.3
